createdAt,value
2022-08-17T00:00:49.509Z,17.36
2022-08-17T00:01:52.805Z,17.33
2022-08-17T00:02:46.355Z,17.31
2022-08-17T00:03:46.342Z,17.33
2022-08-17T00:04:50.469Z,17.34
2022-08-17T00:05:46.329Z,17.34
2022-08-17T00:06:46.309Z,17.38
2022-08-17T00:07:46.354Z,17.36
2022-08-17T00:08:46.301Z,17.31
2022-08-17T00:09:46.279Z,17.22
2022-08-17T00:10:53.552Z,17.16
2022-08-17T00:12:34.727Z,17.14
2022-08-17T00:12:47.257Z,17.12
2022-08-17T00:13:49.246Z,17.11
2022-08-17T00:14:46.247Z,17.14
2022-08-17T00:17:55.526Z,16.94
2022-08-17T00:21:25.404Z,16.96
2022-08-17T00:26:44.391Z,17.01
2022-08-17T00:30:00.822Z,16.94
2022-08-17T00:40:46.363Z,17.05
2022-08-17T00:41:53.330Z,17.02
2022-08-17T00:44:23.965Z,17.05
2022-08-17T00:47:02.292Z,17.11
2022-08-17T00:49:24.033Z,17.15
2022-08-17T01:00:10.005Z,17.26
2022-08-17T01:33:45.989Z,17.15
2022-08-17T01:34:50.588Z,17.15
2022-08-17T01:35:45.895Z,17.14
2022-08-17T01:36:45.894Z,17.14
2022-08-17T01:37:45.886Z,17.12
2022-08-17T01:49:34.745Z,17.16
2022-08-17T01:52:12.394Z,17.12
2022-08-17T01:55:37.287Z,17.11
2022-08-17T02:10:50.908Z,17.76
2022-08-17T02:14:31.584Z,17.82
2022-08-17T02:15:31.534Z,17.79
2022-08-17T02:22:52.736Z,17.76
2022-08-17T02:23:52.612Z,17.74
2022-08-17T02:24:58.655Z,17.72
2022-08-17T02:25:52.592Z,17.70
2022-08-17T02:26:52.585Z,17.72
2022-08-17T02:32:54.987Z,17.67
2022-08-17T02:35:16.883Z,17.64
2022-08-17T02:39:44.973Z,17.54
2022-08-17T02:52:05.243Z,17.31
2022-08-17T02:53:05.513Z,17.29
2022-08-17T02:54:40.053Z,17.33
2022-08-17T02:55:06.165Z,17.38
2022-08-17T02:56:05.154Z,17.39
2022-08-17T02:57:05.144Z,17.42
2022-08-17T02:58:05.135Z,17.44
2022-08-17T02:59:05.115Z,17.45
2022-08-17T03:32:09.518Z,17.01
2022-08-17T03:33:09.471Z,16.93
2022-08-17T03:34:09.462Z,16.91
2022-08-17T03:35:09.449Z,16.87
2022-08-17T03:36:09.463Z,16.86
2022-08-17T03:37:09.428Z,16.89
2022-08-17T03:38:09.419Z,16.87
2022-08-17T03:39:09.414Z,16.86
2022-08-17T03:40:09.441Z,16.81
2022-08-17T03:41:09.430Z,16.78
2022-08-17T03:42:09.393Z,16.75
2022-08-17T03:43:10.371Z,16.71
2022-08-17T03:44:09.351Z,16.71
2022-08-17T03:45:15.083Z,16.66
2022-08-17T03:46:11.085Z,16.64
2022-08-17T03:47:10.322Z,16.64
2022-08-17T03:48:09.315Z,16.61
2022-08-17T03:49:16.420Z,16.64
2022-08-17T03:50:16.344Z,16.64
2022-08-17T03:55:56.198Z,16.68
2022-08-17T04:04:43.042Z,16.57
2022-08-17T04:11:01.114Z,16.47
2022-08-17T04:12:02.559Z,16.47
2022-08-17T04:13:01.054Z,16.47
2022-08-17T04:14:01.144Z,16.47
2022-08-17T04:15:01.045Z,16.49
2022-08-17T04:16:01.056Z,16.46
2022-08-17T04:17:01.037Z,16.49
2022-08-17T04:18:01.116Z,16.50
2022-08-17T04:33:30.448Z,16.53
2022-08-17T04:34:30.405Z,16.54
2022-08-17T04:35:30.400Z,16.56
2022-08-17T04:36:30.387Z,16.54
2022-08-17T04:37:30.384Z,16.54
2022-08-17T04:38:37.411Z,16.57
2022-08-17T04:41:23.731Z,16.64
2022-08-17T04:49:47.740Z,16.72
2022-08-17T04:50:47.689Z,16.72
2022-08-17T04:54:12.526Z,16.75
2022-08-17T04:57:21.625Z,16.79
2022-08-17T05:02:52.629Z,16.93
2022-08-17T05:07:51.714Z,17.09
2022-08-17T05:10:13.448Z,-39.95
2022-08-17T05:12:35.314Z,17.26
2022-08-17T05:15:28.645Z,17.29
2022-08-17T05:19:09.195Z,17.41
2022-08-17T05:22:49.931Z,17.64
2022-08-17T05:28:06.330Z,17.95
2022-08-17T05:29:04.809Z,18.00
2022-08-17T05:30:04.790Z,18.03
2022-08-17T05:31:04.781Z,18.07
2022-08-17T05:32:04.772Z,18.11
2022-08-17T05:33:05.762Z,18.11
2022-08-17T05:34:04.761Z,18.16
2022-08-17T05:35:04.732Z,18.19
2022-08-17T05:36:04.730Z,18.20
2022-08-17T05:37:04.724Z,18.23
2022-08-17T05:38:04.705Z,18.25
2022-08-17T05:39:04.741Z,18.29
2022-08-17T05:40:11.707Z,18.29
2022-08-17T05:41:07.675Z,18.31
2022-08-17T05:42:04.688Z,18.34
2022-08-17T05:43:04.656Z,18.35
2022-08-17T05:44:05.377Z,18.34
2022-08-17T05:45:04.659Z,18.38
2022-08-17T05:46:04.627Z,18.35
2022-08-17T05:47:04.607Z,18.35
2022-08-17T05:49:57.963Z,18.35
2022-08-17T05:50:57.945Z,18.35
2022-08-17T05:51:57.952Z,18.37
2022-08-17T05:52:57.921Z,18.38
2022-08-17T05:53:57.923Z,18.40
2022-08-17T05:57:56.150Z,18.52
2022-08-17T05:58:54.223Z,18.55
2022-08-17T05:59:54.230Z,18.58
2022-08-17T06:00:54.280Z,18.60
2022-08-17T06:01:54.198Z,18.65
2022-08-17T06:02:54.482Z,18.68
2022-08-17T06:03:54.188Z,18.68
2022-08-17T06:04:54.160Z,18.68
2022-08-17T06:05:54.163Z,18.71
2022-08-17T06:06:54.140Z,18.71
2022-08-17T06:07:54.145Z,18.73
2022-08-17T06:08:54.151Z,18.73
2022-08-17T06:09:54.111Z,18.73
2022-08-17T06:10:57.101Z,18.73
2022-08-17T06:11:54.103Z,18.74
2022-08-17T06:16:33.341Z,18.84
2022-08-17T06:19:59.537Z,19.07
2022-08-17T06:22:37.151Z,19.19
2022-08-17T06:23:37.099Z,19.26
2022-08-17T06:24:37.096Z,19.29
2022-08-17T06:25:37.091Z,19.36
2022-08-17T06:28:30.492Z,19.45
2022-08-17T06:29:30.471Z,19.48
2022-08-17T06:30:57.808Z,19.51
2022-08-17T06:31:31.417Z,19.55
2022-08-17T06:32:30.411Z,19.59
2022-08-17T06:33:30.431Z,19.63
2022-08-17T06:34:30.380Z,19.67
2022-08-17T06:35:32.052Z,19.67
2022-08-17T06:36:30.363Z,19.69
2022-08-17T06:37:30.392Z,19.71
2022-08-17T06:38:38.807Z,19.73
2022-08-17T06:39:30.353Z,19.76
2022-08-17T06:40:30.331Z,19.81
2022-08-17T06:41:33.337Z,19.82
2022-08-17T06:42:54.760Z,19.89
2022-08-17T06:43:31.294Z,19.96
2022-08-17T06:44:43.356Z,20.07
2022-08-17T06:45:35.141Z,20.19
2022-08-17T06:46:30.296Z,20.28
2022-08-17T06:47:30.255Z,20.34
2022-08-17T06:48:30.238Z,20.40
2022-08-17T06:49:30.237Z,20.41
2022-08-17T06:50:30.222Z,20.43
2022-08-17T06:51:30.237Z,20.47
2022-08-17T06:52:43.387Z,20.52
2022-08-17T06:53:31.191Z,20.60
2022-08-17T06:54:30.188Z,20.65
2022-08-17T06:55:34.443Z,20.70
2022-08-17T06:56:54.252Z,20.78
2022-08-17T06:57:31.161Z,20.92
2022-08-17T06:58:30.132Z,21.24
2022-08-17T06:59:30.434Z,21.70
2022-08-17T07:00:31.160Z,22.10
2022-08-17T07:01:30.166Z,22.43
2022-08-17T07:02:52.210Z,22.65
2022-08-17T07:03:31.081Z,22.85
2022-08-17T07:04:30.081Z,23.02
2022-08-17T07:07:07.729Z,23.59
2022-08-17T07:08:07.688Z,23.69
2022-08-17T07:09:07.688Z,23.69
2022-08-17T07:10:07.673Z,23.61
2022-08-17T07:11:07.675Z,23.46
2022-08-17T07:12:07.653Z,23.36
2022-08-17T07:13:07.647Z,23.32
2022-08-17T07:14:07.638Z,23.47
2022-08-17T07:19:38.463Z,24.29
2022-08-17T07:20:38.423Z,24.53
2022-08-17T07:21:38.405Z,24.57
2022-08-17T07:22:53.634Z,24.63
2022-08-17T07:25:36.764Z,25.14
2022-08-17T07:26:36.757Z,25.26
2022-08-17T07:28:58.607Z,25.73
2022-08-17T07:29:58.566Z,25.99
2022-08-17T07:30:59.580Z,26.33
2022-08-17T07:31:58.549Z,26.60
2022-08-17T07:32:58.603Z,26.83
2022-08-17T07:33:58.537Z,26.88
2022-08-17T07:34:58.530Z,26.66
2022-08-17T07:35:58.512Z,26.53
2022-08-17T07:36:58.542Z,26.29
2022-08-17T07:40:15.946Z,25.84
2022-08-17T07:41:07.579Z,25.72
2022-08-17T07:42:07.570Z,25.58
2022-08-17T07:43:07.553Z,25.43
2022-08-17T07:44:08.538Z,25.32
2022-08-17T07:45:07.517Z,25.28
2022-08-17T07:46:07.514Z,25.36
2022-08-17T07:47:07.506Z,25.48
2022-08-17T07:48:07.485Z,25.62
2022-08-17T07:51:32.410Z,25.99
2022-08-17T07:52:50.573Z,26.18
2022-08-17T07:53:33.358Z,26.31
2022-08-17T07:54:32.354Z,26.44
2022-08-17T07:55:32.335Z,26.55
2022-08-17T07:56:34.368Z,26.63
2022-08-17T07:57:32.340Z,26.68
2022-08-17T07:59:33.604Z,26.63
2022-08-17T08:00:32.997Z,26.55
2022-08-17T08:01:39.663Z,26.41
2022-08-17T08:05:44.320Z,26.33
2022-08-17T08:06:29.604Z,26.38
2022-08-17T08:09:21.956Z,26.45
2022-08-17T08:10:21.939Z,26.63
2022-08-17T08:11:21.917Z,26.77
2022-08-17T08:12:21.974Z,26.89
2022-08-17T08:13:22.923Z,26.93
2022-08-17T08:14:22.004Z,27.02
2022-08-17T08:15:21.878Z,27.12
2022-08-17T08:16:21.857Z,27.29
2022-08-17T08:17:21.876Z,27.40
2022-08-17T08:18:38.587Z,27.47
2022-08-17T08:19:22.886Z,27.42
2022-08-17T08:20:37.566Z,27.36
2022-08-17T08:21:22.803Z,27.40
2022-08-17T08:22:24.834Z,27.59
2022-08-17T08:23:21.801Z,27.75
2022-08-17T08:24:21.779Z,27.96
2022-08-17T08:25:21.768Z,28.12
2022-08-17T08:26:21.759Z,28.00
2022-08-17T08:27:21.763Z,28.01
2022-08-17T08:29:21.734Z,28.04
2022-08-17T08:30:21.757Z,28.10
2022-08-17T08:32:21.783Z,28.41
2022-08-17T08:33:21.714Z,28.56
2022-08-17T08:34:53.367Z,28.54
2022-08-17T08:35:22.705Z,28.67
2022-08-17T08:37:12.748Z,28.82
2022-08-17T08:37:34.434Z,28.98
2022-08-17T08:38:22.767Z,29.04
2022-08-17T08:39:21.624Z,29.07
2022-08-17T08:40:21.619Z,29.10
2022-08-17T08:41:21.598Z,29.14
2022-08-17T08:42:21.586Z,29.23
2022-08-17T08:43:21.577Z,29.27
2022-08-17T08:44:21.568Z,29.20
2022-08-17T08:48:56.461Z,28.79
2022-08-17T08:50:05.594Z,28.85
2022-08-17T08:50:49.408Z,28.75
2022-08-17T08:51:49.390Z,28.76
2022-08-17T08:52:49.372Z,28.74
2022-08-17T08:53:49.364Z,28.62
2022-08-17T08:54:49.345Z,28.54
2022-08-17T08:55:49.340Z,28.54
2022-08-17T08:57:19.256Z,28.59
2022-08-17T08:57:50.588Z,28.54
2022-08-17T08:58:49.314Z,28.51
2022-08-17T08:59:57.739Z,28.45
2022-08-17T09:00:49.286Z,28.45
2022-08-17T09:01:52.365Z,28.22
2022-08-17T09:02:49.286Z,28.32
2022-08-17T09:03:53.358Z,28.41
2022-08-17T09:05:13.440Z,28.38
2022-08-17T09:05:50.240Z,28.57
2022-08-17T09:08:58.368Z,29.04
2022-08-17T09:12:02.270Z,29.49
2022-08-17T09:12:58.723Z,29.61
2022-08-17T09:18:14.896Z,29.68
2022-08-17T09:28:33.697Z,29.68
2022-08-17T09:46:08.958Z,30.46
2022-08-17T09:47:08.964Z,30.39
2022-08-17T09:48:08.917Z,30.46
2022-08-17T09:55:30.040Z,30.40
2022-08-17T09:56:29.974Z,30.47
2022-08-17T09:57:31.324Z,30.47
2022-08-17T09:58:30.010Z,30.53
2022-08-17T10:05:03.746Z,30.62
2022-08-17T10:17:40.248Z,31.06
2022-08-17T10:23:58.304Z,30.75
2022-08-17T10:35:16.635Z,30.19
2022-08-17T10:36:16.558Z,30.39
2022-08-17T10:38:54.180Z,30.85
2022-08-17T11:01:59.936Z,31.14
2022-08-17T11:05:24.834Z,31.44
2022-08-17T11:06:24.756Z,31.36
2022-08-17T11:49:43.410Z,31.71
2022-08-17T11:50:43.370Z,31.61
2022-08-17T11:51:43.351Z,31.44
2022-08-17T11:58:33.449Z,31.12
2022-08-17T12:29:47.331Z,31.92
2022-08-17T12:46:21.883Z,32.12
2022-08-17T12:56:05.135Z,31.64
2022-08-17T12:58:25.008Z,32.12
2022-08-17T13:03:08.611Z,32.00
2022-08-17T13:10:33.049Z,32.23
2022-08-17T13:13:41.442Z,32.37
2022-08-17T13:19:40.539Z,32.34
2022-08-17T13:20:26.201Z,32.31
2022-08-17T13:21:33.211Z,32.30
2022-08-17T13:22:26.174Z,32.30
2022-08-17T13:26:38.359Z,32.21
2022-08-17T13:27:45.337Z,32.18
2022-08-17T13:31:56.708Z,31.78
2022-08-17T13:32:50.383Z,31.77
2022-08-17T13:45:57.852Z,31.39
2022-08-17T13:47:04.796Z,31.37
2022-08-17T13:54:03.104Z,31.24
2022-08-17T13:55:10.071Z,31.15
2022-08-17T13:57:24.947Z,31.07
2022-08-17T14:02:47.170Z,31.28
2022-08-17T14:06:53.005Z,30.92
2022-08-17T14:16:01.989Z,30.75
2022-08-17T14:18:56.145Z,30.78
2022-08-17T14:24:52.274Z,30.63
2022-08-17T14:25:59.221Z,30.61
2022-08-17T14:31:41.207Z,30.51
2022-08-17T14:35:09.034Z,30.57
2022-08-17T14:36:16.026Z,30.59
2022-08-17T14:37:18.079Z,30.53
2022-08-17T14:47:30.492Z,30.18
2022-08-17T14:51:33.997Z,30.02
2022-08-17T14:53:55.855Z,29.91
2022-08-17T15:03:45.725Z,29.45
2022-08-17T15:04:52.681Z,29.39
2022-08-17T15:07:54.756Z,29.39
2022-08-17T15:11:35.372Z,29.35
2022-08-17T15:13:57.226Z,29.31
2022-08-17T15:19:43.805Z,29.10
2022-08-17T15:23:24.363Z,29.05
2022-08-17T15:24:31.339Z,29.04
2022-08-17T15:27:33.424Z,28.96
2022-08-17T15:30:28.791Z,28.94
2022-08-17T15:32:54.343Z,28.91
2022-08-17T15:37:16.967Z,28.81
2022-08-17T15:41:36.279Z,28.62
2022-08-17T15:44:16.107Z,28.52
2022-08-17T15:47:23.430Z,28.57
2022-08-17T15:48:30.417Z,28.57
2022-08-17T15:49:30.401Z,28.56
2022-08-17T15:52:03.282Z,28.42
2022-08-17T15:53:08.489Z,28.41
2022-08-17T15:54:19.369Z,28.42
2022-08-17T15:56:25.845Z,28.44
2022-08-17T15:59:35.230Z,28.37
2022-08-17T16:06:13.431Z,28.37
2022-08-17T16:07:25.944Z,28.35
2022-08-17T16:08:18.539Z,28.35
2022-08-17T16:11:22.562Z,28.27
2022-08-17T16:12:29.484Z,28.23
2022-08-17T16:15:00.086Z,28.23
2022-08-17T16:16:09.160Z,28.23
2022-08-17T16:19:32.054Z,28.22
2022-08-17T16:21:53.950Z,28.15
2022-08-17T16:23:01.411Z,28.08
2022-08-17T16:23:53.895Z,28.05
2022-08-17T16:27:18.738Z,28.04
2022-08-17T16:29:40.609Z,28.05
2022-08-17T16:30:48.088Z,28.02
2022-08-17T16:31:49.646Z,28.04
2022-08-17T16:34:16.913Z,28.08
2022-08-17T16:36:13.559Z,28.10
2022-08-17T16:39:06.915Z,28.04
2022-08-17T16:41:28.749Z,28.05
2022-08-17T16:43:50.610Z,28.05
2022-08-17T16:44:50.571Z,28.04
2022-08-17T16:47:12.452Z,28.07
2022-08-17T16:48:12.402Z,28.05
2022-08-17T16:49:12.399Z,28.04
2022-08-17T16:50:13.391Z,28.01
2022-08-17T16:51:12.373Z,28.00
2022-08-17T16:52:12.384Z,27.96
2022-08-17T16:53:13.361Z,27.96
2022-08-17T16:54:15.916Z,27.95
2022-08-17T16:55:13.386Z,27.95
2022-08-17T16:56:12.333Z,27.95
2022-08-17T16:57:12.329Z,27.92
2022-08-17T16:58:12.317Z,27.90
2022-08-17T16:59:14.425Z,27.90
2022-08-17T17:00:16.297Z,27.87
2022-08-17T17:01:12.373Z,27.86
2022-08-17T17:02:12.289Z,27.82
2022-08-17T17:03:19.172Z,27.74
2022-08-17T17:04:12.247Z,27.71
2022-08-17T17:05:12.238Z,27.70
2022-08-17T17:06:12.247Z,27.70
2022-08-17T17:07:12.317Z,27.65
2022-08-17T17:08:12.212Z,27.67
2022-08-17T17:09:12.206Z,27.67
2022-08-17T17:10:12.190Z,27.65
2022-08-17T17:11:12.270Z,27.63
2022-08-17T17:12:12.170Z,27.63
2022-08-17T17:13:12.164Z,27.60
2022-08-17T17:14:12.154Z,27.60
2022-08-17T17:15:20.084Z,27.59
2022-08-17T17:16:12.145Z,27.55
2022-08-17T17:17:12.113Z,27.52
2022-08-17T17:18:12.113Z,27.51
2022-08-17T17:19:12.103Z,27.45
2022-08-17T17:20:12.115Z,27.44
2022-08-17T17:21:12.080Z,27.42
2022-08-17T17:22:12.065Z,27.36
2022-08-17T17:23:12.114Z,27.33
2022-08-17T17:24:12.058Z,27.29
2022-08-17T17:25:12.047Z,27.26
2022-08-17T17:26:12.025Z,27.22
2022-08-17T17:27:12.018Z,27.17
2022-08-17T17:28:12.009Z,27.14
2022-08-17T17:29:11.998Z,27.12
2022-08-17T17:30:15.005Z,27.10
2022-08-17T17:31:12.011Z,27.07
2022-08-17T17:32:11.971Z,27.07
2022-08-17T17:33:11.970Z,26.99
2022-08-17T17:34:11.948Z,26.93
2022-08-17T17:35:11.940Z,26.92
2022-08-17T17:36:11.951Z,26.88
2022-08-17T17:37:11.926Z,26.83
2022-08-17T17:38:11.901Z,26.80
2022-08-17T17:39:11.895Z,26.75
2022-08-17T17:40:11.940Z,26.75
2022-08-17T17:41:11.884Z,26.73
2022-08-17T17:42:11.883Z,26.70
2022-08-17T17:43:37.177Z,26.66
2022-08-17T17:44:12.854Z,26.66
2022-08-17T17:45:14.833Z,26.65
2022-08-17T17:46:26.598Z,26.63
2022-08-17T17:47:12.865Z,26.62
2022-08-17T17:48:11.805Z,26.59
2022-08-17T17:49:11.803Z,26.60
2022-08-17T17:50:11.793Z,26.56
2022-08-17T17:51:11.787Z,26.52
2022-08-17T17:52:18.413Z,26.47
2022-08-17T17:53:11.757Z,26.43
2022-08-17T17:54:11.750Z,26.40
2022-08-17T17:55:11.738Z,26.38
2022-08-17T17:56:19.638Z,26.38
2022-08-17T17:57:12.742Z,26.37
2022-08-17T17:58:11.766Z,26.36
2022-08-17T17:59:12.804Z,26.33
2022-08-17T18:00:14.684Z,26.33
2022-08-17T18:01:11.703Z,26.31
2022-08-17T18:02:11.719Z,26.28
2022-08-17T18:03:11.663Z,26.26
2022-08-17T18:04:20.251Z,26.23
2022-08-17T18:05:11.647Z,26.23
2022-08-17T18:06:11.623Z,26.22
2022-08-17T18:07:11.620Z,26.19
2022-08-17T18:08:11.609Z,26.18
2022-08-17T18:09:11.625Z,26.10
2022-08-17T18:10:13.772Z,26.10
2022-08-17T18:11:12.576Z,26.06
2022-08-17T18:12:11.584Z,26.05
2022-08-17T18:13:11.554Z,26.03
2022-08-17T18:14:11.548Z,26.03
2022-08-17T18:15:15.254Z,25.96
2022-08-17T18:16:11.560Z,25.96
2022-08-17T18:17:11.506Z,25.93
2022-08-17T18:18:11.513Z,25.90
2022-08-17T18:19:11.500Z,25.84
2022-08-17T18:20:11.492Z,25.83
2022-08-17T18:21:11.473Z,25.78
2022-08-17T18:22:14.259Z,25.70
2022-08-17T18:23:11.451Z,25.66
2022-08-17T18:24:11.460Z,25.62
2022-08-17T18:25:11.433Z,25.60
2022-08-17T18:26:11.503Z,25.55
2022-08-17T18:27:11.438Z,25.54
2022-08-17T18:28:11.401Z,25.50
2022-08-17T18:29:11.388Z,25.43
2022-08-17T18:30:14.376Z,25.38
2022-08-17T18:31:11.398Z,25.33
2022-08-17T18:32:11.394Z,25.28
2022-08-17T18:33:11.359Z,25.21
2022-08-17T18:34:23.401Z,25.16
2022-08-17T18:35:12.340Z,25.14
2022-08-17T18:36:11.318Z,25.11
2022-08-17T18:37:11.306Z,25.10
2022-08-17T18:38:11.307Z,25.10
2022-08-17T18:39:11.291Z,25.04
2022-08-17T18:40:11.346Z,25.01
2022-08-17T18:41:11.269Z,24.98
2022-08-17T18:42:11.252Z,24.96
2022-08-17T18:43:11.423Z,24.93
2022-08-17T18:44:18.752Z,24.89
2022-08-17T18:45:14.218Z,24.86
2022-08-17T18:46:11.223Z,24.84
2022-08-17T18:47:11.204Z,24.80
2022-08-17T18:48:11.183Z,24.77
2022-08-17T18:49:11.184Z,24.76
2022-08-17T18:50:11.174Z,24.73
2022-08-17T18:51:11.154Z,24.68
2022-08-17T18:52:11.170Z,24.65
2022-08-17T18:53:11.141Z,24.60
2022-08-17T18:54:11.138Z,24.57
2022-08-17T18:55:11.124Z,24.51
2022-08-17T18:57:33.019Z,24.40
2022-08-17T18:58:33.010Z,24.38
2022-08-17T18:59:32.959Z,24.36
2022-08-17T19:00:32.922Z,24.33
2022-08-17T19:01:41.658Z,24.30
2022-08-17T19:02:45.118Z,24.28
2022-08-17T19:03:32.942Z,24.28
2022-08-17T19:04:34.668Z,24.26
2022-08-17T19:05:32.949Z,24.24
2022-08-17T19:06:32.913Z,24.24
2022-08-17T19:07:32.917Z,24.23
2022-08-17T19:08:32.895Z,24.20
2022-08-17T19:09:32.881Z,24.18
2022-08-17T19:10:46.674Z,24.17
2022-08-17T19:11:32.877Z,24.14
2022-08-17T19:12:32.848Z,24.10
2022-08-17T19:13:32.856Z,24.08
2022-08-17T19:14:32.825Z,24.05
2022-08-17T19:15:32.817Z,24.03
2022-08-17T19:16:32.809Z,24.01
2022-08-17T19:17:32.831Z,23.98
2022-08-17T19:18:32.787Z,23.95
2022-08-17T19:19:32.777Z,23.91
2022-08-17T19:20:32.760Z,23.87
2022-08-17T19:21:32.785Z,23.81
2022-08-17T19:22:32.741Z,23.80
2022-08-17T19:23:32.734Z,23.78
2022-08-17T19:24:32.724Z,23.77
2022-08-17T19:25:36.715Z,23.77
2022-08-17T19:26:51.287Z,23.76
2022-08-17T19:27:41.303Z,23.76
2022-08-17T19:28:32.685Z,23.74
2022-08-17T19:29:32.793Z,23.74
2022-08-17T19:30:32.661Z,23.71
2022-08-17T19:31:32.653Z,23.69
2022-08-17T19:32:32.671Z,23.68
2022-08-17T19:33:32.628Z,23.66
2022-08-17T19:34:34.042Z,23.63
2022-08-17T19:35:32.619Z,23.63
2022-08-17T19:36:32.603Z,23.61
2022-08-17T19:37:32.590Z,23.50
2022-08-17T19:38:32.588Z,23.43
2022-08-17T19:39:38.210Z,23.39
2022-08-17T19:40:52.263Z,23.34
2022-08-17T19:41:33.569Z,23.27
2022-08-17T19:42:32.529Z,23.24
2022-08-17T19:43:32.557Z,23.21
2022-08-17T19:44:32.517Z,23.21
2022-08-17T19:45:32.509Z,23.17
2022-08-17T19:46:35.578Z,23.17
2022-08-17T19:47:53.773Z,23.12
2022-08-17T19:48:33.489Z,23.12
2022-08-17T19:49:33.182Z,23.05
2022-08-17T19:50:32.461Z,23.03
2022-08-17T19:51:32.441Z,23.03
2022-08-17T19:52:32.446Z,23.00
2022-08-17T19:53:54.202Z,22.93
2022-08-17T19:54:33.606Z,22.88
2022-08-17T19:55:35.404Z,22.85
2022-08-17T19:56:32.403Z,22.84
2022-08-17T19:57:32.382Z,22.78
2022-08-17T19:58:32.365Z,22.73
2022-08-17T19:59:35.997Z,22.62
2022-08-17T20:00:32.362Z,22.57
2022-08-17T20:01:34.692Z,22.55
2022-08-17T20:02:32.324Z,22.47
2022-08-17T20:03:32.378Z,22.36
2022-08-17T20:04:32.854Z,22.26
2022-08-17T20:05:40.639Z,22.10
2022-08-17T20:07:59.210Z,21.64
2022-08-17T20:08:59.231Z,21.42
2022-08-17T20:09:59.178Z,21.22
2022-08-17T20:10:59.165Z,21.05
2022-08-17T20:11:59.158Z,20.85
2022-08-17T20:12:59.158Z,20.69
2022-08-17T20:14:59.120Z,20.58
2022-08-17T20:15:59.126Z,20.50
2022-08-17T20:17:59.086Z,20.18
2022-08-17T20:18:59.083Z,19.95
2022-08-17T20:19:59.080Z,19.73
2022-08-17T20:21:02.064Z,19.26
2022-08-17T20:21:59.064Z,18.88
2022-08-17T20:22:59.045Z,18.45
2022-08-17T20:23:59.021Z,18.26
2022-08-17T20:24:59.050Z,18.11
2022-08-17T20:25:59.021Z,18.05
2022-08-17T20:26:59.754Z,18.03
2022-08-17T20:28:05.609Z,18.01
2022-08-17T20:28:58.977Z,17.98
2022-08-17T20:29:58.971Z,18.05
2022-08-17T20:30:58.955Z,18.04
2022-08-17T20:31:58.956Z,18.04
2022-08-17T20:32:58.927Z,18.04
2022-08-17T20:33:58.930Z,18.08
2022-08-17T20:34:58.920Z,18.05
2022-08-17T20:36:01.928Z,18.00
2022-08-17T20:36:58.921Z,17.97
2022-08-17T20:37:58.890Z,17.86
2022-08-17T20:38:58.876Z,17.85
2022-08-17T20:39:58.891Z,17.76
2022-08-17T20:40:58.874Z,17.70
2022-08-17T20:42:02.594Z,17.67
2022-08-17T20:42:58.962Z,17.63
2022-08-17T20:43:58.825Z,17.59
2022-08-17T20:44:58.810Z,17.57
2022-08-17T20:45:58.810Z,17.54
2022-08-17T20:46:58.880Z,17.48
2022-08-17T20:48:26.062Z,17.48
2022-08-17T20:48:59.766Z,17.51
2022-08-17T20:49:58.765Z,17.52
2022-08-17T20:51:01.742Z,17.49
2022-08-17T20:52:01.371Z,17.51
2022-08-17T20:52:58.725Z,17.56
2022-08-17T20:53:58.707Z,17.57
2022-08-17T20:54:58.696Z,17.63
2022-08-17T20:55:58.695Z,17.63
2022-08-17T20:56:58.676Z,17.60
2022-08-17T20:57:59.759Z,17.59
2022-08-17T20:58:58.656Z,17.56
2022-08-17T20:59:58.650Z,17.51
2022-08-17T21:00:58.802Z,17.49
2022-08-17T23:03:17.005Z,17.22
2022-08-17T23:04:16.835Z,17.20
2022-08-17T23:05:16.917Z,17.22
